Bellville, Georgia
Current Conditions -  °F | °C
As of 1:55 AM on Monday 24 Nov 2014 (Local Time) from KCWV Reporting Station
Overcast Overcast  
Wind Chill: 68°   Ceiling: 800
Heat Index: 68°   Visibility: 10mi
Dew Point: 68°   Wind: 0mph
Humidity: 100%   Direction: NA
Pressure: 29.83"   Gusts: NA
Location:  32.15°N, 81.97°W
Report Text: KCWV 240655Z AUTO 00000KT 10SM BKN008 BKN012 OVC020 20/20 A2983 RMK AO2
Loading
Personal Weather Stations






























Interactive Weather Map New forecast layout! Learn more

10-Day Weather Forecast

Advertisements
Track Severe Weather on mobile